Time;durP1;ratioP1;P1;durP2;ratioP2;P2;SDS_P1;SDS_P2;PMS_P1;PMS_P2;Temp;Humidity;BMP_temperature;BMP_pressure;BME280_temperature;BME280_humidity;BME280_pressure;Samples;Min_cycle;Max_cycle;Signal;HPM_P1;HPM_P2
2024/01/30 00:00:38;;;;;;;20.88;8.50;;;;;;;8.81;100.00;102604.19;5286343;27;20133;-73
2024/01/30 00:03:09;;;;;;;19.35;8.65;;;;;;;8.74;100.00;102590.41;5290732;27;20077;-73
2024/01/30 00:05:40;;;;;;;25.33;8.30;;;;;;;8.76;100.00;102590.28;5289363;27;20042;-73
2024/01/30 00:08:10;;;;;;;21.23;8.32;;;;;;;8.82;100.00;102587.16;5290707;27;20099;-73
2024/01/30 00:10:41;;;;;;;23.98;9.32;;;;;;;8.95;100.00;102593.31;5288921;27;20024;-73
2024/01/30 00:13:12;;;;;;;20.42;8.55;;;;;;;9.05;100.00;102594.34;5288721;27;20111;-73
2024/01/30 00:15:42;;;;;;;21.70;8.85;;;;;;;9.06;100.00;102588.03;5289243;27;20019;-73
2024/01/30 00:18:13;;;;;;;22.52;10.00;;;;;;;9.08;100.00;102594.09;5289372;27;20034;-73
2024/01/30 00:20:43;;;;;;;30.65;9.63;;;;;;;9.17;100.00;102595.25;5288812;27;20026;-73
2024/01/30 00:23:14;;;;;;;22.88;8.63;;;;;;;9.21;100.00;102599.41;5288388;27;20023;-73
2024/01/30 00:25:44;;;;;;;21.25;8.95;;;;;;;9.20;100.00;102591.50;5287995;28;20102;-72
2024/01/30 00:28:15;;;;;;;24.55;7.72;;;;;;;9.19;100.00;102587.97;5287505;27;20023;-73
2024/01/30 00:30:45;;;;;;;20.33;8.55;;;;;;;9.24;100.00;102585.81;5288332;27;20055;-73
2024/01/30 00:33:16;;;;;;;20.30;7.60;;;;;;;9.25;100.00;102581.31;5288273;27;20016;-73
2024/01/30 00:35:46;;;;;;;19.30;8.10;;;;;;;9.29;100.00;102589.00;5288785;27;20027;-73
2024/01/30 00:38:17;;;;;;;25.90;8.00;;;;;;;9.33;100.00;102576.22;5287207;27;20019;-73
2024/01/30 00:40:48;;;;;;;22.65;8.02;;;;;;;9.37;100.00;102582.19;5290074;27;20096;-73
2024/01/30 00:43:19;;;;;;;18.48;6.93;;;;;;;9.39;100.00;102565.06;5287929;27;20216;-73
2024/01/30 00:45:51;;;;;;;20.40;8.52;;;;;;;9.33;100.00;102560.13;5288762;27;20429;-73
2024/01/30 00:48:22;;;;;;;17.00;7.30;;;;;;;9.27;100.00;102557.94;5288110;27;20054;-73
2024/01/30 00:50:52;;;;;;;19.25;7.90;;;;;;;9.13;100.00;102566.16;5287606;27;20028;-73
2024/01/30 00:53:23;;;;;;;15.82;7.40;;;;;;;9.01;100.00;102559.91;5285568;28;20019;-73
2024/01/30 00:55:53;;;;;;;18.50;8.02;;;;;;;8.94;100.00;102564.00;5288483;27;20024;-73
2024/01/30 00:58:24;;;;;;;16.00;7.07;;;;;;;9.00;100.00;102569.75;5287190;27;20027;-73
2024/01/30 01:00:55;;;;;;;14.30;6.75;;;;;;;9.13;100.00;102560.78;5287507;27;20020;-73
2024/01/30 01:03:25;;;;;;;13.15;6.88;;;;;;;9.19;100.00;102560.34;5288067;27;20039;-73
2024/01/30 01:05:56;;;;;;;16.02;7.47;;;;;;;9.21;100.00;102561.94;5287946;27;20019;-73
2024/01/30 01:08:26;;;;;;;16.30;7.63;;;;;;;9.27;100.00;102560.59;5286512;27;20085;-73
2024/01/30 01:10:57;;;;;;;16.48;6.68;;;;;;;9.26;100.00;102561.59;5286574;28;20027;-73
2024/01/30 01:13:27;;;;;;;14.00;6.97;;;;;;;9.21;100.00;102555.72;5286366;27;20031;-73
2024/01/30 01:15:58;;;;;;;17.45;6.45;;;;;;;9.23;100.00;102561.81;5287515;27;20027;-73
2024/01/30 01:18:28;;;;;;;15.55;6.93;;;;;;;9.27;100.00;102558.78;5280420;27;20423;-73
2024/01/30 01:20:59;;;;;;;16.45;6.35;;;;;;;9.31;100.00;102548.69;5287451;27;20114;-73
2024/01/30 01:23:29;;;;;;;10.38;5.68;;;;;;;9.38;100.00;102549.06;5286701;28;20092;-73
2024/01/30 01:26:00;;;;;;;15.05;6.65;;;;;;;9.39;100.00;102545.41;5286745;28;20480;-73
2024/01/30 01:28:31;;;;;;;19.63;6.95;;;;;;;9.35;100.00;102544.81;5285010;28;20028;-73
2024/01/30 01:31:05;;;;;;;15.52;6.13;;;;;;;9.42;100.00;102543.38;5286518;28;20020;-73
2024/01/30 01:33:36;;;;;;;14.93;6.00;;;;;;;9.36;100.00;102537.63;5286308;28;20072;-73
2024/01/30 01:36:07;;;;;;;14.50;6.65;;;;;;;9.27;100.00;102539.19;5286861;27;20480;-73
2024/01/30 01:38:37;;;;;;;15.40;5.97;;;;;;;9.28;100.00;102535.53;5285550;28;20028;-73
2024/01/30 01:41:08;;;;;;;19.77;6.82;;;;;;;9.35;100.00;102536.78;5286471;27;20027;-73
2024/01/30 01:43:39;;;;;;;15.48;6.90;;;;;;;9.43;100.00;102539.72;5285838;28;20015;-73
2024/01/30 01:46:09;;;;;;;12.77;6.05;;;;;;;9.47;100.00;102533.16;5286576;27;20028;-73
2024/01/30 01:48:43;;;;;;;11.85;5.70;;;;;;;9.51;100.00;102529.28;5286047;27;20043;-73
2024/01/30 01:51:14;;;;;;;13.90;6.50;;;;;;;9.54;100.00;102534.41;5285321;28;20030;-73
2024/01/30 01:53:45;;;;;;;17.60;6.53;;;;;;;9.59;100.00;102526.88;5286524;27;20046;-73
2024/01/30 01:56:16;;;;;;;20.02;6.10;;;;;;;9.67;100.00;102536.97;5285553;28;20027;-73
2024/01/30 01:58:49;;;;;;;13.65;6.72;;;;;;;9.70;100.00;102534.06;5284886;28;20114;-73
2024/01/30 02:01:21;;;;;;;17.02;6.43;;;;;;;9.69;100.00;102536.84;5285915;27;20385;-73
2024/01/30 02:03:51;;;;;;;14.82;5.90;;;;;;;9.63;100.00;102527.47;5286525;28;20028;-73
2024/01/30 02:06:22;;;;;;;14.18;5.93;;;;;;;9.60;100.00;102528.56;5286314;27;20511;-73
2024/01/30 02:08:54;;;;;;;14.65;6.28;;;;;;;9.66;100.00;102521.03;5285268;28;20411;-73
2024/01/30 02:11:24;;;;;;;13.52;5.82;;;;;;;9.69;100.00;102524.31;5285479;28;20031;-73
2024/01/30 02:13:55;;;;;;;13.38;5.35;;;;;;;9.72;100.00;102523.22;5286009;28;20019;-73
2024/01/30 02:16:27;;;;;;;16.10;5.75;;;;;;;9.71;100.00;102522.38;5283422;27;20058;-73
2024/01/30 02:18:58;;;;;;;11.85;5.47;;;;;;;9.57;100.00;102520.75;5286733;27;20426;-73
2024/01/30 02:21:37;;;;;;;18.23;6.22;;;;;;;9.54;100.00;102514.81;5284867;27;20458;-73
2024/01/30 02:24:08;;;;;;;16.20;6.55;;;;;;;9.54;100.00;102520.16;5285719;27;20112;-73
2024/01/30 02:26:50;;;;;;;17.85;6.25;;;;;;;9.52;100.00;102511.38;5278798;28;20031;-73
2024/01/30 02:29:37;;;;;;;13.13;5.68;;;;;;;9.49;100.00;102509.78;5283907;28;20019;-73
2024/01/30 02:32:23;;;;;;;14.07;7.05;;;;;;;9.43;100.00;102514.75;5285163;28;20036;-73
2024/01/30 02:34:53;;;;;;;13.60;6.15;;;;;;;9.40;100.00;102509.66;5285475;28;20138;-73
2024/01/30 02:37:24;;;;;;;11.93;6.18;;;;;;;9.39;100.00;102508.81;5284299;28;20476;-73
2024/01/30 02:39:54;;;;;;;14.75;6.32;;;;;;;9.40;100.00;102510.50;5285660;28;20035;-73
2024/01/30 02:42:24;;;;;;;11.27;5.97;;;;;;;9.44;100.00;102511.09;5285121;28;20477;-73
2024/01/30 02:44:55;;;;;;;12.05;6.50;;;;;;;9.42;100.00;102505.00;5279195;28;20450;-73
2024/01/30 02:47:25;;;;;;;11.57;6.60;;;;;;;9.38;100.00;102516.94;5284399;28;20028;-73
2024/01/30 02:49:56;;;;;;;18.63;6.68;;;;;;;9.32;100.00;102519.09;5285367;28;20054;-73
2024/01/30 02:52:27;;;;;;;13.48;5.70;;;;;;;9.29;100.00;102524.72;5284835;28;20020;-73
2024/01/30 02:54:58;;;;;;;12.65;5.95;;;;;;;9.24;100.00;102520.69;5285788;28;20038;-73
2024/01/30 02:57:29;;;;;;;14.20;6.03;;;;;;;9.17;100.00;102522.09;5284426;28;20019;-73
2024/01/30 02:59:59;;;;;;;13.93;6.75;;;;;;;9.21;100.00;102516.41;5285138;28;20480;-73
2024/01/30 03:02:30;;;;;;;12.02;6.03;;;;;;;9.17;100.00;102522.97;5284817;28;20031;-73
2024/01/30 03:05:01;;;;;;;13.57;5.75;;;;;;;9.17;100.00;102524.78;5285239;28;20028;-73
2024/01/30 03:07:31;;;;;;;11.85;6.05;;;;;;;9.26;100.00;102518.72;5281054;28;20032;-73
2024/01/30 03:10:03;;;;;;;15.07;5.22;;;;;;;9.28;100.00;102514.94;5286588;28;20396;-73
2024/01/30 03:12:34;;;;;;;12.48;6.47;;;;;;;9.26;100.00;102519.59;5284519;28;20032;-73
2024/01/30 03:15:05;;;;;;;11.88;5.90;;;;;;;9.35;100.00;102520.72;5286979;28;20024;-73
2024/01/30 03:17:36;;;;;;;13.23;5.82;;;;;;;9.42;100.00;102510.38;5288436;28;20023;-73
2024/01/30 03:20:09;;;;;;;10.77;6.28;;;;;;;9.57;100.00;102511.88;5287884;28;20024;-73
2024/01/30 03:22:40;;;;;;;14.23;5.65;;;;;;;9.63;100.00;102513.22;5289022;27;20027;-73
2024/01/30 03:25:11;;;;;;;10.18;5.78;;;;;;;9.72;100.00;102525.91;5281459;28;20405;-73
2024/01/30 03:27:41;;;;;;;11.25;5.93;;;;;;;9.74;100.00;102519.47;5286701;27;20686;-73
2024/01/30 03:30:12;;;;;;;11.70;5.68;;;;;;;9.76;100.00;102517.50;5288112;28;20085;-73
2024/01/30 03:32:43;;;;;;;14.93;6.18;;;;;;;9.84;100.00;102509.72;5287135;27;20033;-73
2024/01/30 03:35:14;;;;;;;10.38;5.60;;;;;;;9.88;100.00;102509.47;5288650;28;20031;-73
2024/01/30 03:37:45;;;;;;;13.07;6.05;;;;;;;9.91;100.00;102510.06;5280656;27;20023;-73
2024/01/30 03:40:16;;;;;;;13.40;5.32;;;;;;;9.96;100.00;102507.88;5280493;27;20488;-73
2024/01/30 03:42:46;;;;;;;12.18;5.25;;;;;;;10.00;100.00;102509.34;5287838;27;20027;-73
2024/01/30 03:45:19;;;;;;;10.57;5.93;;;;;;;10.03;100.00;102514.44;5287196;28;20027;-73
2024/01/30 03:47:49;;;;;;;11.32;5.70;;;;;;;10.08;100.00;102511.41;5274705;28;20042;-73
2024/01/30 03:50:20;;;;;;;8.55;4.90;;;;;;;10.15;100.00;102503.75;5283252;28;20028;-73
2024/01/30 03:52:50;;;;;;;13.45;5.15;;;;;;;10.14;100.00;102500.22;5287490;28;20034;-73
2024/01/30 03:55:21;;;;;;;9.75;5.15;;;;;;;10.19;100.00;102495.34;5286855;28;20035;-73
2024/01/30 03:57:51;;;;;;;12.65;5.35;;;;;;;10.28;100.00;102496.44;5284313;28;20032;-73
2024/01/30 04:00:22;;;;;;;7.57;4.95;;;;;;;10.24;100.00;102494.97;5286262;28;20020;-73
2024/01/30 04:02:52;;;;;;;15.80;5.18;;;;;;;10.18;100.00;102495.44;5287345;28;20066;-73
2024/01/30 04:05:23;;;;;;;9.27;4.90;;;;;;;10.19;100.00;102495.34;5285204;27;20027;-73
2024/01/30 04:07:53;;;;;;;10.70;5.00;;;;;;;10.23;100.00;102486.03;5286726;28;20031;-73
2024/01/30 04:10:24;;;;;;;9.63;5.05;;;;;;;10.21;100.00;102484.47;5285065;28;20027;-73
2024/01/30 04:12:55;;;;;;;11.98;5.22;;;;;;;10.23;100.00;102474.47;5284550;28;20531;-73
2024/01/30 04:15:26;;;;;;;10.73;5.97;;;;;;;10.30;100.00;102478.41;5286792;28;20032;-73
2024/01/30 04:17:59;;;;;;;9.60;5.35;;;;;;;10.43;100.00;102484.44;5290343;27;20057;-73
2024/01/30 04:20:29;;;;;;;11.75;4.78;;;;;;;10.51;100.00;102482.00;5289881;27;20057;-73
2024/01/30 04:23:00;;;;;;;16.00;5.43;;;;;;;10.58;100.00;102485.03;5290839;27;20431;-73
2024/01/30 04:25:30;;;;;;;10.63;4.93;;;;;;;10.58;100.00;102485.88;5289822;27;20029;-73
2024/01/30 04:28:01;;;;;;;9.15;5.07;;;;;;;10.62;100.00;102484.66;5287931;28;20030;-73
2024/01/30 04:30:31;;;;;;;13.15;5.45;;;;;;;10.66;100.00;102490.63;5288495;27;20027;-73
2024/01/30 04:33:02;;;;;;;10.40;4.95;;;;;;;10.60;100.00;102496.50;5290358;27;20021;-73
2024/01/30 04:35:32;;;;;;;12.63;5.43;;;;;;;10.55;100.00;102490.66;5287637;28;20030;-73
2024/01/30 04:38:03;;;;;;;16.38;5.72;;;;;;;10.51;100.00;102487.38;5288579;27;20024;-73
2024/01/30 04:40:34;;;;;;;9.18;4.85;;;;;;;10.55;100.00;102488.81;5288634;27;20522;-73
2024/01/30 04:43:04;;;;;;;8.82;5.40;;;;;;;10.59;100.00;102498.34;5288988;27;20114;-73
2024/01/30 04:45:35;;;;;;;11.90;5.45;;;;;;;10.68;100.00;102487.81;5289518;27;20023;-73
2024/01/30 04:48:06;;;;;;;8.93;4.65;;;;;;;10.75;100.00;102491.69;5287375;28;20035;-73
2024/01/30 04:50:36;;;;;;;10.13;5.70;;;;;;;10.72;100.00;102491.94;5286961;27;20381;-73
2024/01/30 04:53:07;;;;;;;9.88;4.75;;;;;;;10.68;100.00;102488.66;5278676;28;20715;-73
2024/01/30 04:55:38;;;;;;;9.30;5.38;;;;;;;10.69;100.00;102497.56;5285796;28;20029;-74
2024/01/30 04:58:08;;;;;;;13.38;5.38;;;;;;;10.67;100.00;102481.59;5285184;28;20106;-73
2024/01/30 05:00:39;;;;;;;9.23;5.10;;;;;;;10.70;100.00;102492.06;5285672;27;20059;-73
2024/01/30 05:03:09;;;;;;;12.70;5.13;;;;;;;10.77;100.00;102481.69;5284272;28;20440;-73
2024/01/30 05:05:40;;;;;;;12.82;4.68;;;;;;;10.74;100.00;102481.91;5285599;27;20106;-73
2024/01/30 05:08:10;;;;;;;10.27;4.72;;;;;;;10.78;100.00;102478.84;5283403;27;20019;-74
2024/01/30 05:10:41;;;;;;;8.32;5.28;;;;;;;10.72;100.00;102479.38;5287275;27;20465;-73
2024/01/30 05:13:13;;;;;;;9.23;5.07;;;;;;;10.77;100.00;102482.53;5286240;28;20035;-73
2024/01/30 05:15:44;;;;;;;10.07;5.80;;;;;;;10.77;100.00;102487.03;5284749;28;20031;-75
2024/01/30 05:18:14;;;;;;;11.00;5.15;;;;;;;10.81;100.00;102485.81;5278725;27;20032;-73
2024/01/30 05:20:45;;;;;;;8.88;5.20;;;;;;;10.87;100.00;102486.16;5286630;28;20499;-73
2024/01/30 05:23:15;;;;;;;11.35;5.72;;;;;;;10.85;100.00;102480.06;5284672;28;20027;-73
2024/01/30 05:25:46;;;;;;;7.70;5.05;;;;;;;10.89;100.00;102484.19;5287671;27;20096;-74
2024/01/30 05:28:16;;;;;;;10.32;4.70;;;;;;;10.92;100.00;102485.75;5286346;28;20023;-73
2024/01/30 05:30:47;;;;;;;11.52;5.25;;;;;;;10.85;100.00;102477.38;5286543;27;20401;-73
2024/01/30 05:33:17;;;;;;;10.55;5.47;;;;;;;10.93;100.00;102476.72;5286088;27;20027;-73
2024/01/30 05:35:48;;;;;;;10.70;5.13;;;;;;;10.88;100.00;102489.69;5279048;28;20054;-73
2024/01/30 05:38:18;;;;;;;9.50;5.05;;;;;;;10.96;100.00;102484.53;5287011;27;20473;-73
2024/01/30 05:40:49;;;;;;;10.65;5.93;;;;;;;10.95;100.00;102484.66;5287026;27;20388;-73
2024/01/30 05:43:20;;;;;;;11.73;5.70;;;;;;;10.93;100.00;102482.09;5276331;27;20019;-73
2024/01/30 05:45:51;;;;;;;12.07;5.07;;;;;;;10.92;100.00;102488.44;5287378;27;20484;-74
2024/01/30 05:48:22;;;;;;;10.20;5.57;;;;;;;10.94;100.00;102486.47;5282969;27;20081;-73
2024/01/30 05:50:52;;;;;;;12.05;5.00;;;;;;;10.96;100.00;102486.38;5285122;28;20477;-73
2024/01/30 05:53:23;;;;;;;11.05;4.57;;;;;;;11.00;100.00;102487.81;5279569;27;20024;-73
2024/01/30 05:55:53;;;;;;;13.05;6.30;;;;;;;10.97;100.00;102485.38;5281720;28;20499;-73
2024/01/30 05:58:24;;;;;;;11.07;5.53;;;;;;;10.95;100.00;102484.66;5277162;28;20032;-73
2024/01/30 06:00:54;;;;;;;11.43;5.75;;;;;;;10.96;100.00;102484.53;5284455;27;20028;-74
2024/01/30 06:03:25;;;;;;;8.55;5.10;;;;;;;11.00;100.00;102490.50;5285561;27;20031;-73
2024/01/30 06:05:55;;;;;;;13.75;5.57;;;;;;;10.99;100.00;102486.09;5286420;27;20046;-73
2024/01/30 06:08:26;;;;;;;9.20;5.07;;;;;;;10.99;100.00;102486.94;5284778;28;20039;-73
2024/01/30 06:10:56;;;;;;;10.45;5.60;;;;;;;10.95;100.00;102496.25;5285763;28;20110;-73
2024/01/30 06:13:27;;;;;;;12.55;5.78;;;;;;;10.93;100.00;102492.81;5282849;28;20035;-73
2024/01/30 06:15:58;;;;;;;10.73;5.85;;;;;;;10.99;100.00;102496.81;5285779;28;20030;-72
2024/01/30 06:18:30;;;;;;;11.65;5.45;;;;;;;10.94;100.00;102501.72;5282813;28;20023;-73
2024/01/30 06:21:00;;;;;;;15.82;5.38;;;;;;;10.94;100.00;102507.09;5273765;28;20393;-74
2024/01/30 06:23:31;;;;;;;12.55;6.25;;;;;;;10.98;100.00;102505.88;5285247;28;20031;-73
2024/01/30 06:36:21;;;;;;;10.55;5.53;;;;;;;11.04;100.00;102525.00;5268312;28;20020;-73
2024/01/30 06:38:52;;;;;;;10.32;5.70;;;;;;;11.04;100.00;102529.53;5284242;27;20027;-73
2024/01/30 06:41:22;;;;;;;11.50;5.50;;;;;;;11.01;100.00;102530.66;5285292;27;20104;-73
2024/01/30 06:43:53;;;;;;;14.90;6.25;;;;;;;11.01;100.00;102536.03;5285330;28;20069;-73
2024/01/30 06:46:23;;;;;;;10.48;5.75;;;;;;;11.06;100.00;102538.31;5284906;28;20723;-73
2024/01/30 06:48:54;;;;;;;12.55;5.50;;;;;;;11.03;100.00;102534.03;5283148;28;20161;-73
2024/01/30 06:51:24;;;;;;;11.20;5.72;;;;;;;11.00;100.00;102541.53;5274693;28;20035;-73
2024/01/30 06:53:54;;;;;;;11.82;5.65;;;;;;;10.98;100.00;102547.00;5278862;28;20028;-73
2024/01/30 06:56:25;;;;;;;12.35;6.45;;;;;;;11.03;100.00;102543.94;5272763;28;20030;-73
2024/01/30 06:58:58;;;;;;;10.68;5.00;;;;;;;10.97;100.00;102556.03;5282316;28;20061;-73
2024/01/30 07:01:29;;;;;;;11.85;5.50;;;;;;;11.01;100.00;102564.72;5277709;28;20052;-73
2024/01/30 07:03:59;;;;;;;10.60;5.20;;;;;;;10.98;100.00;102557.75;5271449;28;20036;-73
2024/01/30 07:06:30;;;;;;;10.75;5.55;;;;;;;10.98;100.00;102562.25;5296954;28;20031;-73
2024/01/30 07:09:00;;;;;;;12.63;6.00;;;;;;;11.00;100.00;102563.88;5288768;28;20426;-73
2024/01/30 07:11:32;;;;;;;11.60;5.10;;;;;;;11.00;100.00;102571.91;5291961;27;20029;-73
2024/01/30 07:14:04;;;;;;;11.50;5.85;;;;;;;11.00;100.00;102574.59;5294928;27;20749;-73
2024/01/30 07:16:35;;;;;;;12.85;6.20;;;;;;;10.98;100.00;102581.06;5300377;27;20027;-73
2024/01/30 07:19:05;;;;;;;10.95;5.57;;;;;;;10.98;100.00;102581.91;5295309;27;20019;-73
2024/01/30 07:21:36;;;;;;;12.55;5.57;;;;;;;10.91;100.00;102583.41;5293461;27;20641;-73
2024/01/30 07:24:06;;;;;;;13.20;5.38;;;;;;;10.96;100.00;102583.88;5293197;28;20503;-73
2024/01/30 07:26:37;;;;;;;9.85;5.45;;;;;;;10.98;100.00;102583.75;5293615;28;20027;-73
2024/01/30 07:29:07;;;;;;;8.18;5.10;;;;;;;10.97;100.00;102584.75;5300124;28;20075;-73
2024/01/30 07:31:38;;;;;;;12.23;6.55;;;;;;;11.02;100.00;102583.38;5284219;28;20031;-73
2024/01/30 07:34:09;;;;;;;17.83;6.55;;;;;;;11.06;100.00;102590.19;5289392;28;20030;-73
2024/01/30 07:36:39;;;;;;;14.25;5.97;;;;;;;11.15;100.00;102592.13;5288429;28;20023;-73
2024/01/30 07:39:10;;;;;;;15.95;6.72;;;;;;;11.22;100.00;102597.84;5290421;28;20084;-73
2024/01/30 07:41:40;;;;;;;16.02;6.30;;;;;;;11.24;100.00;102603.91;5300363;28;20015;-73
2024/01/30 07:44:11;;;;;;;7.95;4.90;;;;;;;11.28;100.00;102610.75;5284548;28;20552;-73
2024/01/30 07:46:41;;;;;;;11.52;5.68;;;;;;;11.37;100.00;102614.50;5290975;28;20031;-73
2024/01/30 07:49:14;;;;;;;11.85;5.78;;;;;;;11.44;100.00;102612.16;5290342;28;20111;-73
2024/01/30 07:51:45;;;;;;;15.38;6.13;;;;;;;11.46;100.00;102613.75;5291182;27;20027;-73
2024/01/30 07:54:15;;;;;;;11.93;5.65;;;;;;;11.46;100.00;102608.38;5296714;27;20484;-73
2024/01/30 07:56:46;;;;;;;13.90;6.25;;;;;;;11.51;100.00;102618.72;5288449;28;20042;-73
2024/01/30 07:59:16;;;;;;;11.93;5.50;;;;;;;11.53;100.00;102620.28;5294058;27;20471;-73
2024/01/30 08:01:47;;;;;;;10.95;5.35;;;;;;;11.60;100.00;102616.13;5298289;27;20073;-73
2024/01/30 08:04:17;;;;;;;16.10;5.88;;;;;;;11.58;100.00;102614.53;5287909;27;20019;-73
2024/01/30 08:06:48;;;;;;;15.75;6.22;;;;;;;11.65;100.00;102615.75;5294041;27;20560;-73
2024/01/30 08:09:18;;;;;;;16.80;5.55;;;;;;;11.74;100.00;102614.06;5300450;27;20031;-73
2024/01/30 08:11:49;;;;;;;15.00;6.10;;;;;;;11.72;100.00;102618.75;5294539;27;20042;-73
2024/01/30 08:14:19;;;;;;;10.98;6.70;;;;;;;11.79;100.00;102609.16;5296375;27;20027;-73
2024/01/30 08:16:50;;;;;;;17.30;5.97;;;;;;;11.83;100.00;102616.03;5290749;27;20081;-73
2024/01/30 08:19:20;;;;;;;19.90;6.80;;;;;;;11.79;100.00;102612.69;5292665;27;20027;-73
2024/01/30 08:21:51;;;;;;;11.93;5.55;;;;;;;11.77;100.00;102619.22;5304274;27;20037;-73
2024/01/30 08:24:21;;;;;;;11.35;5.95;;;;;;;11.79;100.00;102623.44;5288785;27;20030;-73
2024/01/30 08:26:52;;;;;;;12.13;5.43;;;;;;;11.85;100.00;102624.81;5298000;27;20031;-73
2024/01/30 08:29:22;;;;;;;12.45;6.05;;;;;;;11.90;100.00;102622.59;5288536;27;20035;-73
2024/01/30 08:31:55;;;;;;;17.88;7.40;;;;;;;11.91;100.00;102624.28;5292212;27;20019;-73
2024/01/30 08:34:26;;;;;;;22.63;8.00;;;;;;;11.91;100.00;102633.22;5295374;27;20083;-73
2024/01/30 08:36:56;;;;;;;20.40;7.32;;;;;;;11.98;100.00;102632.69;5293837;27;20032;-73
2024/01/30 08:39:27;;;;;;;17.20;7.72;;;;;;;12.04;100.00;102624.91;5287282;28;20027;-73
2024/01/30 08:41:57;;;;;;;19.45;7.45;;;;;;;12.11;100.00;102633.34;5287904;28;20096;-73
2024/01/30 08:44:28;;;;;;;19.08;8.20;;;;;;;12.03;100.00;102628.59;5286735;28;20028;-73
2024/01/30 08:46:58;;;;;;;15.10;6.65;;;;;;;12.17;100.00;102628.25;5293445;27;20035;-73
2024/01/30 08:49:29;;;;;;;14.60;6.88;;;;;;;12.23;100.00;102628.72;5293169;27;20469;-73
2024/01/30 08:51:59;;;;;;;16.38;7.15;;;;;;;12.26;100.00;102633.84;5287341;28;20035;-73
2024/01/30 08:54:30;;;;;;;20.85;7.10;;;;;;;12.31;100.00;102636.97;5294053;27;20026;-73
2024/01/30 08:57:01;;;;;;;23.20;7.10;;;;;;;12.28;100.00;102638.09;5295577;27;20035;-73
2024/01/30 08:59:31;;;;;;;15.65;6.05;;;;;;;12.34;100.00;102637.53;5287636;27;20396;-73
2024/01/30 09:02:03;;;;;;;20.45;7.18;;;;;;;12.37;100.00;102637.28;5292103;27;20433;-73
2024/01/30 09:04:34;;;;;;;18.13;7.20;;;;;;;12.36;100.00;102637.44;5287242;27;20035;-73
2024/01/30 09:07:08;;;;;;;20.75;6.85;;;;;;;12.44;100.00;102635.75;5291389;27;20030;-73
2024/01/30 09:09:40;;;;;;;21.55;8.23;;;;;;;12.52;100.00;102640.47;5297517;27;20081;-73
2024/01/30 09:12:11;;;;;;;17.73;7.20;;;;;;;12.59;100.00;102638.06;5286841;28;20081;-73
2024/01/30 09:14:42;;;;;;;19.67;8.23;;;;;;;12.57;100.00;102649.00;5285277;28;20435;-73
2024/01/30 09:17:13;;;;;;;16.40;7.45;;;;;;;12.50;100.00;102650.53;5292707;27;20061;-73
2024/01/30 09:19:43;;;;;;;20.60;7.78;;;;;;;12.51;100.00;102656.78;5288675;27;20028;-73
2024/01/30 09:22:14;;;;;;;22.80;8.13;;;;;;;12.49;100.00;102654.19;5296061;27;20099;-73
2024/01/30 09:24:44;;;;;;;18.45;7.57;;;;;;;12.46;100.00;102659.00;5285742;27;20019;-73
2024/01/30 09:27:15;;;;;;;14.55;6.43;;;;;;;12.46;100.00;102651.78;5295048;27;20031;-73
2024/01/30 09:29:45;;;;;;;32.28;7.93;;;;;;;12.48;100.00;102654.34;5290515;27;20030;-73
2024/01/30 09:32:17;;;;;;;19.77;7.30;;;;;;;12.42;100.00;102659.28;5289442;27;20430;-73
2024/01/30 09:34:48;;;;;;;17.35;7.25;;;;;;;12.50;100.00;102653.22;5286621;27;20376;-73
2024/01/30 09:37:18;;;;;;;18.45;7.03;;;;;;;12.48;100.00;102659.72;5290236;27;20026;-73
2024/01/30 09:39:49;;;;;;;17.90;7.18;;;;;;;12.39;100.00;102664.91;5292329;27;20024;-73
2024/01/30 09:42:26;;;;;;;18.60;7.15;;;;;;;12.56;100.00;102671.53;5293029;27;20015;-73
2024/01/30 09:44:57;;;;;;;18.70;7.03;;;;;;;12.67;100.00;102666.03;5286823;28;20024;-73
2024/01/30 09:47:27;;;;;;;20.80;8.32;;;;;;;12.65;100.00;102676.09;5284374;28;20026;-73
2024/01/30 09:49:58;;;;;;;18.27;8.30;;;;;;;12.70;100.00;102668.47;5285273;28;20023;-73
2024/01/30 09:52:29;;;;;;;17.90;8.32;;;;;;;12.82;100.00;102673.75;5285924;27;20026;-73
2024/01/30 09:55:01;;;;;;;20.58;8.45;;;;;;;12.92;100.00;102685.41;5288245;27;20027;-73
2024/01/30 09:57:31;;;;;;;19.65;8.45;;;;;;;13.02;100.00;102682.75;5285453;28;20034;-73
2024/01/30 10:00:04;;;;;;;26.30;8.55;;;;;;;13.04;100.00;102688.84;5286141;28;20031;-73
2024/01/30 10:02:35;;;;;;;19.40;7.88;;;;;;;12.91;100.00;102691.78;5286795;27;20023;-73
2024/01/30 10:05:07;;;;;;;22.85;11.27;;;;;;;12.96;100.00;102693.09;5293907;27;20039;-73
2024/01/30 10:07:38;;;;;;;22.95;10.65;;;;;;;12.89;100.00;102701.84;5282789;27;20034;-73
2024/01/30 10:10:08;;;;;;;22.50;11.05;;;;;;;12.89;100.00;102707.22;5295343;27;20023;-73
2024/01/30 10:12:39;;;;;;;20.15;10.90;;;;;;;12.89;100.00;102715.31;5291353;27;20117;-73
2024/01/30 10:15:11;;;;;;;21.83;9.25;;;;;;;12.89;100.00;102718.84;5287136;28;20051;-73
2024/01/30 10:17:41;;;;;;;22.25;11.57;;;;;;;12.88;100.00;102713.59;5289040;27;20350;-73
2024/01/30 10:20:12;;;;;;;21.52;10.95;;;;;;;12.79;100.00;102717.09;5289981;27;20083;-73
2024/01/30 10:22:45;;;;;;;25.45;11.25;;;;;;;12.81;100.00;102710.59;5287752;27;20020;-73
2024/01/30 10:25:16;;;;;;;19.83;9.43;;;;;;;12.91;100.00;102714.19;5294345;27;20023;-73
2024/01/30 10:27:47;;;;;;;20.15;9.40;;;;;;;12.76;100.00;102712.84;5292826;27;20036;-73
2024/01/30 10:30:17;;;;;;;17.88;10.10;;;;;;;12.84;100.00;102725.63;5288018;27;20439;-73
2024/01/30 10:32:48;;;;;;;18.75;10.50;;;;;;;12.76;100.00;102728.16;5292364;27;20027;-73
2024/01/30 10:35:19;;;;;;;24.85;9.80;;;;;;;12.79;100.00;102728.72;5293676;27;20023;-73
2024/01/30 10:37:49;;;;;;;20.92;9.98;;;;;;;12.87;100.00;102731.59;5286167;27;20023;-73
2024/01/30 10:40:21;;;;;;;19.92;8.80;;;;;;;12.77;100.00;102728.03;5296423;27;20027;-73
2024/01/30 10:42:55;;;;;;;17.42;8.30;;;;;;;12.70;100.00;102737.59;5293489;27;20038;-73
2024/01/30 10:45:27;;;;;;;23.67;9.57;;;;;;;12.70;100.00;102743.00;5292554;27;20047;-73
2024/01/30 10:47:59;;;;;;;18.85;9.07;;;;;;;12.58;100.00;102744.06;5293942;27;20019;-73
2024/01/30 10:50:32;;;;;;;415.83;169.50;;;;;;;12.52;100.00;102753.53;5285731;27;20391;-73
2024/01/30 10:53:05;;;;;;;23.35;10.73;;;;;;;12.44;100.00;102754.19;5290263;27;20476;-73
2024/01/30 10:55:37;;;;;;;30.75;13.88;;;;;;;12.54;100.00;102748.00;5291160;27;20035;-73
2024/01/30 10:58:08;;;;;;;153.50;87.35;;;;;;;12.49;100.00;102747.56;5293940;27;20030;-73
2024/01/30 11:00:38;;;;;;;63.45;49.70;;;;;;;12.46;100.00;102746.00;5296371;27;20046;-73
2024/01/30 11:03:09;;;;;;;28.10;20.20;;;;;;;12.44;100.00;102742.56;5293172;28;20025;-73
2024/01/30 11:05:41;;;;;;;28.65;17.60;;;;;;;12.49;100.00;102748.41;5291355;28;20392;-73
2024/01/30 11:08:13;;;;;;;17.08;7.07;;;;;;;12.40;100.00;102747.38;5296569;27;20053;-73
2024/01/30 11:10:46;;;;;;;11.02;5.75;;;;;;;12.26;100.00;102730.72;5288547;28;20027;-73
2024/01/30 11:13:19;;;;;;;12.90;5.43;;;;;;;12.39;100.00;102742.97;5290560;28;20030;-73
2024/01/30 11:15:49;;;;;;;8.95;4.20;;;;;;;12.43;100.00;102740.88;5295090;28;20538;-73
2024/01/30 11:18:29;;;;;;;14.25;5.00;;;;;;;12.33;100.00;102740.81;5271363;28;20024;-73
2024/01/30 11:21:01;;;;;;;6.25;2.80;;;;;;;12.28;100.00;102732.28;5293333;28;20015;-73
2024/01/30 11:23:34;;;;;;;13.85;3.67;;;;;;;12.26;100.00;102742.34;5289487;28;20027;-73
2024/01/30 11:26:05;;;;;;;22.58;8.57;;;;;;;12.19;100.00;102744.66;5288124;28;20015;-73
2024/01/30 11:28:38;;;;;;;18.60;8.50;;;;;;;12.18;100.00;102751.03;5289076;27;20057;-73
2024/01/30 11:31:08;;;;;;;19.70;7.60;;;;;;;12.23;100.00;102763.25;5292449;27;20361;-73
2024/01/30 11:33:39;;;;;;;16.05;5.90;;;;;;;12.04;100.00;102756.72;5298951;27;20038;-73
2024/01/30 11:36:13;;;;;;;19.55;8.98;;;;;;;12.07;100.00;102758.31;5299397;27;20026;-73
2024/01/30 11:38:45;;;;;;;31.92;12.35;;;;;;;12.13;100.00;102752.41;5294495;27;20554;-73